East Farms, Washington
Current Conditions -  °F | °C
As of 10:28 PM on Tuesday 25 Nov 2014 (Local Time) from KSFF Reporting Station
Unknown Precip Unknown Precip  
Wind Chill: 36°   Ceiling: 900
Heat Index: 36°   Visibility: 8mi
Dew Point: 33°   Wind: 0mph
Humidity: 89%   Direction: NA
Pressure: 30.18"   Gusts: NA
Location:  47.7153°N, 117.066°W
Report Text: KSFF 260628Z AUTO 00000KT 8SM UP BKN009 OVC014 02/01 A3018 RMK AO2 UPB25 P0000 I1000 T00220006
Loading
Personal Weather Stations






























Interactive Weather Map New forecast layout! Learn more

10-Day Weather Forecast

Advertisements
Track Severe Weather on mobile